createdAt,value
2019-03-12T00:02:07.791Z,100129.70
2019-03-12T00:04:35.691Z,100135.86
2019-03-12T00:07:03.467Z,100134.88
2019-03-12T00:09:31.274Z,100136.09
2019-03-12T00:11:59.133Z,100149.07
2019-03-12T00:14:27.059Z,100147.99
2019-03-12T00:16:54.892Z,100149.63
2019-03-12T00:19:22.724Z,100158.22
2019-03-12T00:21:50.470Z,100155.53
2019-03-12T00:24:18.349Z,100159.06
2019-03-12T00:26:46.096Z,100167.45
2019-03-12T00:29:13.935Z,100165.38
2019-03-12T00:31:41.719Z,100173.58
2019-03-12T00:34:09.773Z,100168.34
2019-03-12T00:36:37.600Z,100175.64
2019-03-12T00:39:05.771Z,100180.58
2019-03-12T00:41:33.528Z,100180.74
2019-03-12T00:44:01.302Z,100180.28
2019-03-12T00:46:29.579Z,100181.94
2019-03-12T00:48:57.352Z,100185.69
2019-03-12T00:51:25.153Z,100182.39
2019-03-12T00:53:52.984Z,100182.09
2019-03-12T00:56:20.779Z,100184.00
2019-03-12T00:58:48.567Z,100183.11
2019-03-12T01:01:16.364Z,100185.33
2019-03-12T01:03:44.156Z,100187.02
2019-03-12T01:06:11.907Z,100190.71
2019-03-12T01:08:39.722Z,100195.11
2019-03-12T01:11:07.496Z,100194.86
2019-03-12T01:13:35.322Z,100196.33
2019-03-12T01:16:03.345Z,100201.86
2019-03-12T01:18:31.170Z,100204.20
2019-03-12T01:20:58.899Z,100206.09
2019-03-12T01:23:26.708Z,100207.99
2019-03-12T01:25:54.689Z,100209.86
2019-03-12T01:28:22.570Z,100209.75
2019-03-12T01:30:50.410Z,100202.49
2019-03-12T01:33:18.182Z,100199.31
2019-03-12T01:35:45.957Z,100198.62
2019-03-12T01:38:13.713Z,100199.89
2019-03-12T01:40:41.506Z,100201.32
2019-03-12T01:43:09.307Z,100205.27
2019-03-12T01:45:37.159Z,100209.56
2019-03-12T01:48:04.939Z,100212.88
2019-03-12T01:50:32.763Z,100209.64
2019-03-12T01:53:00.520Z,100211.27
2019-03-12T01:55:28.530Z,100210.39
2019-03-12T01:57:56.325Z,100212.47
2019-03-12T02:00:24.116Z,100215.59
2019-03-12T02:02:51.917Z,100219.58
2019-03-12T02:05:19.687Z,100219.77
2019-03-12T02:07:47.556Z,100217.76
2019-03-12T02:10:15.545Z,100221.08
2019-03-12T02:12:43.336Z,100223.23
2019-03-12T02:15:11.460Z,100219.95
2019-03-12T02:17:39.244Z,100224.67
2019-03-12T02:20:11.615Z,100223.88
2019-03-12T02:22:39.399Z,100216.34
2019-03-12T02:25:15.036Z,100220.46
2019-03-12T02:27:42.881Z,100232.20
2019-03-12T02:30:13.712Z,100233.36
2019-03-12T02:32:44.425Z,100236.08
2019-03-12T02:35:11.457Z,100240.37
2019-03-12T02:37:39.217Z,100237.75
2019-03-12T02:40:07.484Z,100237.34
2019-03-12T02:42:35.230Z,100236.64
2019-03-12T02:45:03.665Z,100240.30
2019-03-12T02:47:31.498Z,100244.70
2019-03-12T02:49:59.672Z,100241.20
2019-03-12T02:52:27.988Z,100243.13
2019-03-12T02:54:55.790Z,100242.53
2019-03-12T02:57:23.646Z,100242.64
2019-03-12T02:59:51.480Z,100244.03
2019-03-12T03:02:19.244Z,100249.02
2019-03-12T03:04:47.235Z,100250.28
2019-03-12T03:07:34.656Z,100254.52
2019-03-12T03:10:03.010Z,100254.86
2019-03-12T03:12:30.821Z,100256.70
2019-03-12T03:15:07.339Z,100258.53
2019-03-12T03:17:35.247Z,100253.40
2019-03-12T03:20:03.466Z,100250.88
2019-03-12T03:22:31.245Z,100247.19
2019-03-12T03:24:59.390Z,100249.04
2019-03-12T03:27:29.304Z,100255.31
2019-03-12T03:29:56.913Z,100260.66
2019-03-12T03:32:24.717Z,100254.69
2019-03-12T03:34:52.569Z,100258.98
2019-03-12T03:37:20.414Z,100263.41
2019-03-12T03:39:48.202Z,100262.12
2019-03-12T03:42:16.107Z,100259.75
2019-03-12T03:44:44.208Z,100265.30
2019-03-12T03:47:12.026Z,100258.34
2019-03-12T03:49:39.806Z,100264.72
2019-03-12T03:52:07.662Z,100265.74
2019-03-12T03:54:35.518Z,100256.38
2019-03-12T03:57:03.312Z,100259.17
2019-03-12T03:59:34.509Z,100259.53
2019-03-12T04:02:02.317Z,100262.42
2019-03-12T04:04:30.094Z,100267.47
2019-03-12T04:06:57.875Z,100271.06
2019-03-12T04:09:25.688Z,100271.18
2019-03-12T04:11:53.511Z,100269.50
2019-03-12T04:14:21.324Z,100263.93
2019-03-12T04:16:49.084Z,100267.37
2019-03-12T04:19:16.907Z,100269.27
2019-03-12T04:21:44.704Z,100265.46
2019-03-12T04:24:12.488Z,100267.42
2019-03-12T04:26:52.695Z,100268.85
2019-03-12T04:29:20.512Z,100272.59
2019-03-12T04:31:48.385Z,100274.70
2019-03-12T04:34:38.313Z,100273.45
2019-03-12T04:37:06.130Z,100271.88
2019-03-12T04:39:33.982Z,100263.52
2019-03-12T04:42:01.781Z,100258.30
2019-03-12T04:44:29.540Z,100265.39
2019-03-12T04:46:57.325Z,100270.85
2019-03-12T04:49:25.148Z,100269.16
2019-03-12T04:51:52.932Z,100265.01
2019-03-12T04:54:25.891Z,100265.05
2019-03-12T04:56:53.747Z,100257.67
2019-03-12T04:59:21.509Z,100258.23
2019-03-12T05:01:49.396Z,100251.61
2019-03-12T05:04:17.264Z,100256.61
2019-03-12T05:06:45.073Z,100259.41
2019-03-12T05:09:12.898Z,100253.08
2019-03-12T05:11:40.710Z,100244.99
2019-03-12T05:14:42.326Z,100242.05
2019-03-12T05:17:31.460Z,100234.16
2019-03-12T05:19:59.274Z,100242.38
2019-03-12T05:22:27.110Z,100246.77
2019-03-12T05:24:54.965Z,100251.36
2019-03-12T05:27:24.927Z,100246.23
2019-03-12T05:29:52.487Z,100244.55
2019-03-12T05:32:20.296Z,100248.34
2019-03-12T05:34:48.391Z,100248.05
2019-03-12T05:37:16.244Z,100243.85
2019-03-12T05:39:44.041Z,100243.80
2019-03-12T05:42:11.876Z,100243.83
2019-03-12T05:44:39.895Z,100245.49
2019-03-12T05:47:08.301Z,100244.87
2019-03-12T05:49:36.452Z,100245.94
2019-03-12T05:52:04.308Z,100252.66
2019-03-12T05:54:32.135Z,100248.84
2019-03-12T05:56:59.908Z,100242.55
2019-03-12T05:59:27.664Z,100243.66
2019-03-12T06:01:55.447Z,100247.66
2019-03-12T06:04:23.546Z,100247.73
2019-03-12T06:06:51.280Z,100248.13
2019-03-12T06:09:29.666Z,100250.78
2019-03-12T06:11:48.772Z,100253.34
2019-03-12T06:14:24.912Z,100253.63
2019-03-12T06:16:57.479Z,100252.47
2019-03-12T06:19:25.261Z,100247.19
2019-03-12T06:21:53.058Z,100246.12
2019-03-12T06:24:20.858Z,100244.69
2019-03-12T06:26:48.595Z,100238.62
2019-03-12T06:29:22.387Z,100239.45
2019-03-12T06:32:08.313Z,100235.33
2019-03-12T06:34:49.309Z,100232.70
2019-03-12T06:37:51.529Z,100228.97
2019-03-12T06:40:38.929Z,100230.29
2019-03-12T06:43:32.306Z,100228.99
2019-03-12T06:46:35.028Z,100233.17
2019-03-12T06:49:09.930Z,100234.23
2019-03-12T06:52:06.362Z,100228.78
2019-03-12T06:54:41.177Z,100226.08
2019-03-12T06:57:34.549Z,100227.70
2019-03-12T07:00:16.367Z,100225.45
2019-03-12T07:03:02.608Z,100222.06
2019-03-12T07:05:49.073Z,100225.53
2019-03-12T07:08:36.436Z,100226.16
2019-03-12T07:11:23.849Z,100222.53
2019-03-12T07:14:07.811Z,100218.30
2019-03-12T07:17:04.544Z,100220.26
2019-03-12T07:19:57.881Z,100216.57
2019-03-12T07:22:44.274Z,100209.16
2019-03-12T07:25:18.064Z,100198.94
2019-03-12T07:28:08.524Z,100192.14
2019-03-12T07:31:00.965Z,100192.83
2019-03-12T07:33:48.102Z,100219.59
2019-03-12T07:36:35.515Z,100196.91
2019-03-12T07:39:18.066Z,100185.72
2019-03-12T07:42:11.270Z,100175.29
2019-03-12T07:44:52.108Z,100168.13
2019-03-12T07:47:44.305Z,100160.78
2019-03-12T07:50:43.538Z,100157.20
2019-03-12T07:53:18.912Z,100149.95
2019-03-12T07:56:09.765Z,100146.63
2019-03-12T07:59:00.169Z,100141.00
2019-03-12T08:02:02.909Z,100137.33
2019-03-12T08:04:48.765Z,100136.44
2019-03-12T08:07:42.309Z,100121.44
2019-03-12T08:10:18.550Z,100119.59
2019-03-12T08:13:14.903Z,100109.71
2019-03-12T08:15:55.384Z,100104.70
2019-03-12T08:18:38.393Z,100099.91
2019-03-12T08:21:22.308Z,100089.00
2019-03-12T08:24:01.392Z,100089.27
2019-03-12T08:27:03.880Z,100087.64
2019-03-12T08:29:49.731Z,100074.41
2019-03-12T08:32:39.924Z,100062.84
2019-03-12T08:35:07.431Z,100064.61
2019-03-12T08:37:53.657Z,100060.24
2019-03-12T08:40:32.299Z,100050.14
2019-03-12T08:43:06.338Z,100043.42
2019-03-12T08:46:05.755Z,100042.59
2019-03-12T08:48:46.894Z,100033.05
2019-03-12T08:51:37.295Z,100016.67
2019-03-12T08:54:33.454Z,100016.69
2019-03-12T08:57:20.846Z,100010.70
2019-03-12T09:00:14.460Z,100007.79
2019-03-12T09:03:01.830Z,99990.88
2019-03-12T09:05:38.114Z,99989.27
2019-03-12T09:08:24.063Z,99980.16
2019-03-12T09:11:14.258Z,99985.13
2019-03-12T09:13:59.307Z,99975.44
2019-03-12T09:16:46.719Z,99959.84
2019-03-12T09:19:27.308Z,99942.88
2019-03-12T09:22:12.536Z,99941.03
2019-03-12T09:25:03.032Z,99967.67
2019-03-12T09:27:51.885Z,99966.08
2019-03-12T09:30:41.968Z,99965.16
2019-03-12T09:33:17.727Z,99961.33
2019-03-12T09:35:59.543Z,99960.19
2019-03-12T09:38:46.901Z,99959.41
2019-03-12T09:41:20.878Z,99949.41
2019-03-12T09:44:13.114Z,99945.08
2019-03-12T09:46:59.600Z,99954.70
2019-03-12T09:49:47.063Z,99953.95
2019-03-12T09:52:37.310Z,99942.91
2019-03-12T09:55:25.398Z,99936.98
2019-03-12T09:58:15.977Z,99932.03
2019-03-12T10:01:21.845Z,99924.91
2019-03-12T10:04:11.883Z,99913.96
2019-03-12T10:06:59.157Z,99909.34
2019-03-12T10:09:55.385Z,99893.89
2019-03-12T10:12:51.770Z,99894.48
2019-03-12T10:15:42.480Z,99880.32
2019-03-12T10:18:33.098Z,99879.14
2019-03-12T10:21:07.302Z,99876.30
2019-03-12T10:23:53.005Z,99868.08
2019-03-12T10:26:49.233Z,99872.54
2019-03-12T10:29:32.468Z,99868.55
2019-03-12T10:32:11.570Z,99866.60
2019-03-12T10:35:08.085Z,99858.97
2019-03-12T10:38:04.319Z,99856.89
2019-03-12T10:40:41.594Z,99849.05
2019-03-12T10:43:27.113Z,99847.42
2019-03-12T10:46:14.474Z,99841.69
2019-03-12T10:48:42.723Z,99821.38
2019-03-12T10:51:13.046Z,99807.58
2019-03-12T10:53:40.592Z,99807.20
2019-03-12T10:56:08.363Z,99799.27
2019-03-12T10:58:36.170Z,99797.78
2019-03-12T11:01:04.093Z,99798.67
2019-03-12T11:03:31.909Z,99777.81
2019-03-12T11:05:59.691Z,99794.51
2019-03-12T11:08:27.497Z,99759.71
2019-03-12T11:10:55.282Z,99786.58
2019-03-12T11:13:23.069Z,99771.98
2019-03-12T11:16:01.163Z,99761.46
2019-03-12T11:18:29.019Z,99754.59
2019-03-12T11:23:23.916Z,99747.70
2019-03-12T11:25:51.723Z,99742.83
2019-03-12T11:28:19.503Z,99732.95
2019-03-12T11:30:47.315Z,99723.39
2019-03-12T11:33:15.150Z,99723.45
2019-03-12T11:35:42.911Z,99721.67
2019-03-12T11:38:10.793Z,99710.38
2019-03-12T11:40:38.733Z,99710.79
2019-03-12T11:43:06.551Z,99697.39
2019-03-12T11:45:36.690Z,99695.27
2019-03-12T11:48:06.687Z,99708.53
2019-03-12T11:50:34.475Z,99690.79
2019-03-12T11:53:02.424Z,99678.09
2019-03-12T11:55:30.583Z,99679.86
2019-03-12T11:57:58.511Z,99673.18
2019-03-12T12:00:29.582Z,99675.30
2019-03-12T12:03:00.236Z,99665.41
2019-03-12T12:05:27.185Z,99655.51
2019-03-12T12:07:55.056Z,99648.00
2019-03-12T12:10:23.325Z,99643.71
2019-03-12T12:12:51.208Z,99628.08
2019-03-12T12:15:19.168Z,99626.01
2019-03-12T12:17:49.232Z,99613.93
2019-03-12T12:20:28.793Z,99608.14
2019-03-12T12:22:46.426Z,99598.55
2019-03-12T12:25:19.450Z,99586.75
2019-03-12T12:27:47.301Z,99573.97
2019-03-12T12:30:16.805Z,99566.59
2019-03-12T12:32:44.545Z,99563.53
2019-03-12T12:35:13.088Z,99562.53
2019-03-12T12:37:40.951Z,99551.54
2019-03-12T12:40:11.529Z,99554.86
2019-03-12T12:42:39.341Z,99550.56
2019-03-12T12:45:10.730Z,99544.80
2019-03-12T12:47:38.574Z,99528.67
2019-03-12T12:50:06.610Z,99406.81
2019-03-12T12:52:34.511Z,99517.64
2019-03-12T12:55:02.486Z,99521.48
2019-03-12T12:57:30.343Z,99514.32
2019-03-12T12:59:58.112Z,99504.10
2019-03-12T13:02:25.877Z,99509.77
2019-03-12T13:04:53.841Z,99492.81
2019-03-12T13:07:21.597Z,99495.64
2019-03-12T13:09:49.409Z,99481.10
2019-03-12T13:12:17.207Z,99478.06
2019-03-12T13:14:45.234Z,99473.48
2019-03-12T13:17:13.044Z,99475.73
2019-03-12T13:19:40.951Z,99475.44
2019-03-12T13:22:08.827Z,99457.38
2019-03-12T13:24:36.859Z,99466.77
2019-03-12T13:27:04.686Z,99455.75
2019-03-12T13:29:32.667Z,99459.30
2019-03-12T13:32:12.924Z,99455.31
2019-03-12T13:34:30.409Z,99439.53
2019-03-12T13:36:58.195Z,99437.11
2019-03-12T13:39:26.037Z,99427.68
2019-03-12T13:41:53.905Z,99422.11
2019-03-12T13:44:21.701Z,99422.92
2019-03-12T13:46:49.487Z,99421.48
2019-03-12T13:49:17.269Z,99418.84
2019-03-12T13:51:45.087Z,99412.25
2019-03-12T13:54:12.940Z,99400.05
2019-03-12T13:56:40.798Z,99409.94
2019-03-12T13:59:08.578Z,99403.30
2019-03-12T14:01:36.499Z,99401.20
2019-03-12T14:04:10.573Z,99387.73
2019-03-12T14:06:34.050Z,99377.02
2019-03-12T14:09:02.027Z,99380.09
2019-03-12T14:11:29.826Z,99375.33
2019-03-12T14:13:57.802Z,99366.81
2019-03-12T14:16:25.590Z,99375.13
2019-03-12T14:18:53.444Z,99369.38
2019-03-12T14:21:21.230Z,99360.95
2019-03-12T14:23:57.611Z,99348.41
2019-03-12T14:26:25.408Z,99348.55
2019-03-12T14:28:53.251Z,99339.84
2019-03-12T14:31:21.062Z,99326.50
2019-03-12T14:33:48.922Z,99314.61
2019-03-12T14:36:16.708Z,99304.80
2019-03-12T14:38:44.492Z,99294.63
2019-03-12T14:41:12.305Z,99283.20
2019-03-12T14:43:40.108Z,99272.28
2019-03-12T14:46:08.168Z,99263.91
2019-03-12T14:49:00.070Z,99269.05
2019-03-12T14:52:14.542Z,99256.73
2019-03-12T14:54:42.334Z,99245.33
2019-03-12T14:57:10.128Z,99244.02
2019-03-12T14:59:37.933Z,99233.56
2019-03-12T15:02:05.811Z,99226.19
2019-03-12T15:04:33.764Z,99211.52
2019-03-12T15:07:01.568Z,99209.02
2019-03-12T15:09:29.378Z,99199.44
2019-03-12T15:11:57.226Z,99188.95
2019-03-12T15:14:25.151Z,99186.52
2019-03-12T15:16:52.950Z,99174.55
2019-03-12T15:19:20.771Z,99163.89
2019-03-12T15:21:48.592Z,99159.41
2019-03-12T15:24:16.465Z,99163.27
2019-03-12T15:26:44.263Z,99149.88
2019-03-12T15:29:12.067Z,99144.10
2019-03-12T15:31:39.836Z,99132.73
2019-03-12T15:34:07.840Z,99135.95
2019-03-12T15:36:35.630Z,99125.58
2019-03-12T15:39:06.279Z,99115.94
2019-03-12T15:41:34.068Z,99104.69
2019-03-12T15:44:02.931Z,99096.81
2019-03-12T15:46:30.754Z,99093.27
2019-03-12T15:48:58.582Z,99075.02
2019-03-12T15:51:26.324Z,99075.52
2019-03-12T15:53:54.332Z,99062.30
2019-03-12T15:56:22.173Z,99049.25
2019-03-12T15:58:50.085Z,99039.89
2019-03-12T16:01:17.860Z,99039.51
2019-03-12T16:03:45.652Z,99034.30
2019-03-12T16:06:13.486Z,99027.87
2019-03-12T16:08:41.340Z,99021.95
2019-03-12T16:11:09.185Z,99013.91
2019-03-12T16:13:36.985Z,99005.94
2019-03-12T16:16:04.923Z,99001.64
2019-03-12T16:18:32.715Z,98995.14
2019-03-12T16:21:00.560Z,98988.25
2019-03-12T16:23:28.373Z,98989.92
2019-03-12T16:25:56.221Z,98988.20
2019-03-12T16:28:24.025Z,98978.86
2019-03-12T16:30:51.822Z,98968.14
2019-03-12T16:33:19.560Z,98963.11
2019-03-12T16:35:47.464Z,98957.28
2019-03-12T16:38:15.317Z,98947.98
2019-03-12T16:40:43.083Z,98945.26
2019-03-12T16:43:10.825Z,98941.16
2019-03-12T16:45:39.126Z,98930.38
2019-03-12T16:48:06.933Z,98930.58
2019-03-12T16:50:34.779Z,98931.26
2019-03-12T16:53:02.513Z,98927.31
2019-03-12T16:55:30.525Z,98920.27
2019-03-12T16:57:58.285Z,98914.52
2019-03-12T17:00:26.089Z,98905.31
2019-03-12T17:02:53.872Z,98897.43
2019-03-12T17:05:21.988Z,98888.23
2019-03-12T17:07:49.756Z,98889.61
2019-03-12T17:10:17.688Z,98881.73
2019-03-12T17:12:45.682Z,98877.75
2019-03-12T17:15:13.690Z,98872.72
2019-03-12T17:17:41.517Z,98864.41
2019-03-12T17:20:10.675Z,98856.56
2019-03-12T17:22:38.514Z,98853.77
2019-03-12T17:25:06.724Z,98843.17
2019-03-12T17:27:34.510Z,98835.34
2019-03-12T17:30:02.445Z,98833.38
2019-03-12T17:32:30.199Z,98826.71
2019-03-12T17:34:58.038Z,98824.78
2019-03-12T17:37:25.949Z,98821.41
2019-03-12T17:39:53.703Z,98815.04
2019-03-12T17:42:21.538Z,98807.98
2019-03-12T17:44:49.363Z,98803.07
2019-03-12T17:47:17.176Z,98794.72
2019-03-12T17:49:45.330Z,98786.19
2019-03-12T17:52:13.113Z,98781.63
2019-03-12T17:54:41.336Z,98776.09
2019-03-12T17:57:09.153Z,98726.40
2019-03-12T17:59:36.944Z,98761.44
2019-03-12T18:02:04.738Z,98759.51
2019-03-12T18:04:32.493Z,98751.37
2019-03-12T18:07:00.240Z,98741.53
2019-03-12T18:09:28.068Z,98738.12
2019-03-12T18:11:55.867Z,98731.28
2019-03-12T18:14:28.872Z,98729.02
2019-03-12T18:16:56.683Z,98736.59
2019-03-12T18:19:24.575Z,98733.66
2019-03-12T18:21:52.434Z,98724.81
2019-03-12T18:24:30.350Z,98718.80
2019-03-12T18:26:58.117Z,98719.27
2019-03-12T18:29:25.965Z,98713.58
2019-03-12T18:31:53.753Z,98711.13
2019-03-12T18:34:21.701Z,98709.17
2019-03-12T18:36:49.491Z,98700.39
2019-03-12T18:39:17.357Z,98689.92
2019-03-12T18:41:45.130Z,98681.61
2019-03-12T18:44:13.079Z,98675.26
2019-03-12T18:46:43.256Z,98665.14
2019-03-12T18:49:23.044Z,98658.53
2019-03-12T18:51:51.606Z,98652.71
2019-03-12T18:54:19.471Z,98647.24
2019-03-12T18:56:47.344Z,98639.81
2019-03-12T18:59:15.425Z,98631.23
2019-03-12T19:01:43.315Z,98627.78
2019-03-12T19:04:11.127Z,98628.61
2019-03-12T19:06:39.092Z,98622.53
2019-03-12T19:09:08.489Z,98611.95
2019-03-12T19:11:37.537Z,98605.38
2019-03-12T19:14:06.045Z,98603.95
2019-03-12T19:16:34.166Z,98595.73
2019-03-12T19:19:02.508Z,98590.14
2019-03-12T19:21:30.679Z,98581.59
2019-03-12T19:23:59.007Z,98576.47
2019-03-12T19:26:27.393Z,98574.30
2019-03-12T19:28:55.715Z,98566.55
2019-03-12T19:31:43.556Z,98571.78
2019-03-12T19:34:20.230Z,98559.34
2019-03-12T19:36:48.479Z,98552.78
2019-03-12T19:39:18.338Z,98548.80
2019-03-12T19:41:46.448Z,98542.20
2019-03-12T19:44:14.771Z,98533.30
2019-03-12T19:46:43.162Z,98527.56
2019-03-12T19:49:11.406Z,98512.46
2019-03-12T19:51:39.740Z,98503.30
2019-03-12T19:54:07.973Z,98497.07
2019-03-12T19:56:36.231Z,98497.92
2019-03-12T19:59:04.554Z,98498.61
2019-03-12T20:01:34.697Z,98494.98
2019-03-12T20:04:03.336Z,98487.11
2019-03-12T20:06:32.159Z,98480.28
2019-03-12T20:09:00.462Z,98476.85
2019-03-12T20:12:21.054Z,98475.36
2019-03-12T20:15:55.039Z,98468.82
2019-03-12T20:19:31.305Z,98468.00
2019-03-12T20:23:23.735Z,98456.31
2019-03-12T20:26:52.717Z,98461.19
2019-03-12T20:30:26.431Z,98452.57
2019-03-12T20:34:03.792Z,98433.84
2019-03-12T20:37:43.629Z,98433.30
2019-03-12T20:41:05.204Z,98421.93
2019-03-12T20:44:43.297Z,98432.09
2019-03-12T20:48:06.993Z,98429.06
2019-03-12T20:51:34.147Z,98424.80
2019-03-12T20:55:18.727Z,98380.66
2019-03-12T20:58:56.187Z,98383.61
2019-03-12T21:02:52.781Z,98348.86
2019-03-12T21:06:20.188Z,98340.58
2019-03-12T21:09:30.738Z,98335.31
2019-03-12T21:13:06.899Z,98325.76
2019-03-12T21:16:22.023Z,98317.45
2019-03-12T21:20:16.605Z,98312.77
2019-03-12T21:23:46.220Z,98306.09
2019-03-12T21:27:02.134Z,98293.37
2019-03-12T21:29:44.785Z,98280.55
2019-03-12T21:32:14.223Z,98285.59
2019-03-12T21:35:02.097Z,98281.33
2019-03-12T21:37:30.315Z,98275.05
2019-03-12T21:39:58.455Z,98268.44
2019-03-12T21:42:26.634Z,98270.99
2019-03-12T21:44:54.968Z,98266.08
2019-03-12T21:47:22.939Z,98260.66
2019-03-12T21:49:50.822Z,98252.17
2019-03-12T21:52:19.725Z,98241.48
2019-03-12T21:54:47.812Z,98229.83
2019-03-12T21:57:15.688Z,98228.70
2019-03-12T21:59:43.468Z,98210.34
2019-03-12T22:02:11.314Z,98208.59
2019-03-12T22:04:54.221Z,98198.61
2019-03-12T22:07:22.001Z,98198.14
2019-03-12T22:09:49.749Z,98196.01
2019-03-12T22:12:17.574Z,98181.91
2019-03-12T22:14:45.359Z,98172.73
2019-03-12T22:17:13.186Z,98171.13
2019-03-12T22:19:41.015Z,98166.27
2019-03-12T22:22:40.346Z,98180.33
2019-03-12T22:25:09.925Z,98191.95
2019-03-12T22:27:37.718Z,98206.88
2019-03-12T22:30:10.617Z,98200.34
2019-03-12T22:32:38.435Z,98191.58
2019-03-12T22:35:06.675Z,98205.28
2019-03-12T22:37:34.461Z,98168.52
2019-03-12T22:40:02.272Z,98215.84
2019-03-12T22:42:30.088Z,98221.59
2019-03-12T22:44:57.874Z,98220.64
2019-03-12T22:47:25.661Z,98216.53
2019-03-12T22:49:53.492Z,98227.98
2019-03-12T22:52:21.316Z,98231.02
2019-03-12T22:54:49.079Z,98240.36
2019-03-12T22:57:16.878Z,98235.07
2019-03-12T22:59:44.700Z,98235.31
2019-03-12T23:02:12.491Z,98237.12
2019-03-12T23:04:40.491Z,98233.48
2019-03-12T23:07:08.306Z,98224.92
2019-03-12T23:09:36.059Z,98217.13
2019-03-12T23:12:03.951Z,98216.63
2019-03-12T23:14:31.784Z,98213.88
2019-03-12T23:16:59.520Z,98203.20
2019-03-12T23:19:27.390Z,98194.53
2019-03-12T23:21:55.196Z,98184.64
2019-03-12T23:24:28.130Z,98184.31
2019-03-12T23:26:55.958Z,98183.03
2019-03-12T23:29:23.858Z,98184.67
2019-03-12T23:31:51.701Z,98175.36
2019-03-12T23:34:19.494Z,98171.91
2019-03-12T23:36:47.340Z,98171.70
2019-03-12T23:39:15.129Z,98168.42
2019-03-12T23:41:43.281Z,98156.97
2019-03-12T23:44:11.131Z,98150.40
2019-03-12T23:46:39.001Z,98142.20
2019-03-12T23:49:06.832Z,98140.69
2019-03-12T23:51:34.615Z,98143.94
2019-03-12T23:54:02.517Z,98138.52
2019-03-12T23:56:30.307Z,98137.19
2019-03-12T23:58:58.104Z,98142.73
